sensor_id;sensor_type;location;lat;lon;timestamp;P1;durP1;ratioP1;P2;durP2;ratioP2
22794;SDS011;11564;50.920;11.612;2023-08-20T00:00:40;8.50;;;6.57;;
22794;SDS011;11564;50.920;11.612;2023-08-20T00:03:11;20.47;;;7.70;;
22794;SDS011;11564;50.920;11.612;2023-08-20T00:05:38;9.93;;;7.47;;
22794;SDS011;11564;50.920;11.612;2023-08-20T00:08:04;10.10;;;7.33;;
22794;SDS011;11564;50.920;11.612;2023-08-20T00:10:30;9.30;;;6.97;;
22794;SDS011;11564;50.920;11.612;2023-08-20T00:12:56;14.80;;;7.00;;
22794;SDS011;11564;50.920;11.612;2023-08-20T00:15:22;9.33;;;7.57;;
22794;SDS011;11564;50.920;11.612;2023-08-20T00:17:51;14.30;;;7.50;;
22794;SDS011;11564;50.920;11.612;2023-08-20T00:20:18;11.17;;;7.47;;
22794;SDS011;11564;50.920;11.612;2023-08-20T00:22:44;8.93;;;6.60;;
22794;SDS011;11564;50.920;11.612;2023-08-20T00:25:11;12.73;;;7.10;;
22794;SDS011;11564;50.920;11.612;2023-08-20T00:27:41;9.37;;;7.00;;
22794;SDS011;11564;50.920;11.612;2023-08-20T00:30:08;8.53;;;6.17;;
22794;SDS011;11564;50.920;11.612;2023-08-20T00:32:34;11.37;;;7.23;;
22794;SDS011;11564;50.920;11.612;2023-08-20T00:35:01;14.50;;;7.70;;
22794;SDS011;11564;50.920;11.612;2023-08-20T00:37:30;12.57;;;7.37;;
22794;SDS011;11564;50.920;11.612;2023-08-20T00:39:56;9.63;;;8.03;;
22794;SDS011;11564;50.920;11.612;2023-08-20T00:42:22;10.07;;;7.20;;
22794;SDS011;11564;50.920;11.612;2023-08-20T00:44:50;18.93;;;8.17;;
22794;SDS011;11564;50.920;11.612;2023-08-20T00:47:16;8.80;;;6.50;;
22794;SDS011;11564;50.920;11.612;2023-08-20T00:49:43;9.73;;;6.90;;
22794;SDS011;11564;50.920;11.612;2023-08-20T00:52:09;13.00;;;6.47;;
22794;SDS011;11564;50.920;11.612;2023-08-20T00:54:37;8.93;;;7.40;;
22794;SDS011;11564;50.920;11.612;2023-08-20T00:57:05;16.47;;;7.03;;
22794;SDS011;11564;50.920;11.612;2023-08-20T00:59:32;14.00;;;7.70;;
22794;SDS011;11564;50.920;11.612;2023-08-20T01:01:58;9.93;;;6.97;;
22794;SDS011;11564;50.920;11.612;2023-08-20T01:04:23;15.83;;;7.47;;
22794;SDS011;11564;50.920;11.612;2023-08-20T01:11:59;11.67;;;7.80;;
22794;SDS011;11564;50.920;11.612;2023-08-20T01:14:27;15.07;;;8.13;;
22794;SDS011;11564;50.920;11.612;2023-08-20T01:16:53;8.13;;;7.33;;
22794;SDS011;11564;50.920;11.612;2023-08-20T01:19:19;10.67;;;8.43;;
22794;SDS011;11564;50.920;11.612;2023-08-20T01:24:39;14.27;;;7.90;;
22794;SDS011;11564;50.920;11.612;2023-08-20T01:30:14;13.67;;;7.70;;
22794;SDS011;11564;50.920;11.612;2023-08-20T01:32:40;12.33;;;7.40;;
22794;SDS011;11564;50.920;11.612;2023-08-20T01:35:11;11.47;;;8.03;;
22794;SDS011;11564;50.920;11.612;2023-08-20T01:37:38;11.40;;;7.47;;
22794;SDS011;11564;50.920;11.612;2023-08-20T01:40:05;13.90;;;7.80;;
22794;SDS011;11564;50.920;11.612;2023-08-20T01:42:33;13.40;;;8.03;;
22794;SDS011;11564;50.920;11.612;2023-08-20T01:44:59;19.63;;;7.93;;
22794;SDS011;11564;50.920;11.612;2023-08-20T01:47:24;13.13;;;8.10;;
22794;SDS011;11564;50.920;11.612;2023-08-20T01:49:50;12.83;;;8.20;;
22794;SDS011;11564;50.920;11.612;2023-08-20T01:52:15;10.60;;;7.83;;
22794;SDS011;11564;50.920;11.612;2023-08-20T01:54:41;15.83;;;8.10;;
22794;SDS011;11564;50.920;11.612;2023-08-20T01:57:07;16.43;;;8.00;;
22794;SDS011;11564;50.920;11.612;2023-08-20T01:59:32;14.50;;;7.80;;
22794;SDS011;11564;50.920;11.612;2023-08-20T02:01:58;19.23;;;8.53;;
22794;SDS011;11564;50.920;11.612;2023-08-20T02:04:23;10.30;;;8.40;;
22794;SDS011;11564;50.920;11.612;2023-08-20T02:06:49;9.20;;;7.50;;
22794;SDS011;11564;50.920;11.612;2023-08-20T02:09:14;11.23;;;8.33;;
22794;SDS011;11564;50.920;11.612;2023-08-20T02:11:41;11.03;;;8.80;;
22794;SDS011;11564;50.920;11.612;2023-08-20T02:14:07;14.07;;;8.00;;
22794;SDS011;11564;50.920;11.612;2023-08-20T02:16:33;10.03;;;7.60;;
22794;SDS011;11564;50.920;11.612;2023-08-20T02:18:58;11.53;;;7.63;;
22794;SDS011;11564;50.920;11.612;2023-08-20T02:21:24;16.67;;;8.33;;
22794;SDS011;11564;50.920;11.612;2023-08-20T02:23:50;10.00;;;8.60;;
22794;SDS011;11564;50.920;11.612;2023-08-20T02:26:15;15.17;;;8.60;;
22794;SDS011;11564;50.920;11.612;2023-08-20T02:28:41;14.10;;;7.90;;
22794;SDS011;11564;50.920;11.612;2023-08-20T02:31:06;15.33;;;8.10;;
22794;SDS011;11564;50.920;11.612;2023-08-20T02:33:32;10.90;;;8.13;;
22794;SDS011;11564;50.920;11.612;2023-08-20T02:36:01;12.23;;;8.60;;
22794;SDS011;11564;50.920;11.612;2023-08-20T02:38:28;20.70;;;8.10;;
22794;SDS011;11564;50.920;11.612;2023-08-20T02:40:53;17.40;;;8.80;;
22794;SDS011;11564;50.920;11.612;2023-08-20T02:43:19;11.10;;;8.17;;
22794;SDS011;11564;50.920;11.612;2023-08-20T02:45:44;11.20;;;8.10;;
22794;SDS011;11564;50.920;11.612;2023-08-20T02:48:10;12.03;;;8.90;;
22794;SDS011;11564;50.920;11.612;2023-08-20T02:50:37;17.40;;;8.13;;
22794;SDS011;11564;50.920;11.612;2023-08-20T02:53:02;15.90;;;7.57;;
22794;SDS011;11564;50.920;11.612;2023-08-20T02:55:29;14.43;;;9.00;;
22794;SDS011;11564;50.920;11.612;2023-08-20T02:57:55;15.20;;;8.13;;
22794;SDS011;11564;50.920;11.612;2023-08-20T03:00:20;15.60;;;8.13;;
22794;SDS011;11564;50.920;11.612;2023-08-20T03:02:46;13.50;;;7.83;;
22794;SDS011;11564;50.920;11.612;2023-08-20T03:05:12;9.17;;;8.27;;
22794;SDS011;11564;50.920;11.612;2023-08-20T03:07:37;18.27;;;8.60;;
22794;SDS011;11564;50.920;11.612;2023-08-20T03:10:03;10.60;;;8.40;;
22794;SDS011;11564;50.920;11.612;2023-08-20T03:12:29;12.50;;;8.50;;
22794;SDS011;11564;50.920;11.612;2023-08-20T03:14:55;19.53;;;8.50;;
22794;SDS011;11564;50.920;11.612;2023-08-20T03:17:21;13.90;;;8.70;;
22794;SDS011;11564;50.920;11.612;2023-08-20T03:19:56;9.03;;;8.13;;
22794;SDS011;11564;50.920;11.612;2023-08-20T03:22:23;11.93;;;8.63;;
22794;SDS011;11564;50.920;11.612;2023-08-20T03:24:50;15.03;;;8.47;;
22794;SDS011;11564;50.920;11.612;2023-08-20T03:27:17;15.03;;;7.83;;
22794;SDS011;11564;50.920;11.612;2023-08-20T03:29:43;19.00;;;9.10;;
22794;SDS011;11564;50.920;11.612;2023-08-20T03:32:09;14.83;;;9.70;;
22794;SDS011;11564;50.920;11.612;2023-08-20T03:34:35;10.43;;;8.33;;
22794;SDS011;11564;50.920;11.612;2023-08-20T03:37:01;14.90;;;8.37;;
22794;SDS011;11564;50.920;11.612;2023-08-20T03:39:27;16.83;;;9.20;;
22794;SDS011;11564;50.920;11.612;2023-08-20T03:41:53;11.30;;;8.57;;
22794;SDS011;11564;50.920;11.612;2023-08-20T03:44:18;9.33;;;7.97;;
22794;SDS011;11564;50.920;11.612;2023-08-20T03:46:44;11.20;;;8.17;;
22794;SDS011;11564;50.920;11.612;2023-08-20T03:49:10;14.90;;;10.50;;
22794;SDS011;11564;50.920;11.612;2023-08-20T03:51:36;12.43;;;8.87;;
22794;SDS011;11564;50.920;11.612;2023-08-20T03:54:02;14.00;;;9.20;;
22794;SDS011;11564;50.920;11.612;2023-08-20T03:56:28;18.40;;;9.17;;
22794;SDS011;11564;50.920;11.612;2023-08-20T03:58:54;11.30;;;8.50;;
22794;SDS011;11564;50.920;11.612;2023-08-20T04:01:20;9.63;;;8.73;;
22794;SDS011;11564;50.920;11.612;2023-08-20T04:03:46;19.50;;;9.73;;
22794;SDS011;11564;50.920;11.612;2023-08-20T04:06:13;16.60;;;9.53;;
22794;SDS011;11564;50.920;11.612;2023-08-20T04:08:39;15.07;;;10.07;;
22794;SDS011;11564;50.920;11.612;2023-08-20T04:11:05;12.27;;;9.47;;
22794;SDS011;11564;50.920;11.612;2023-08-20T04:13:30;15.30;;;10.40;;
22794;SDS011;11564;50.920;11.612;2023-08-20T04:15:56;14.60;;;9.43;;
22794;SDS011;11564;50.920;11.612;2023-08-20T04:18:22;14.17;;;9.13;;
22794;SDS011;11564;50.920;11.612;2023-08-20T04:20:50;14.63;;;10.23;;
22794;SDS011;11564;50.920;11.612;2023-08-20T04:23:16;14.23;;;9.70;;
22794;SDS011;11564;50.920;11.612;2023-08-20T04:25:42;13.83;;;11.17;;
22794;SDS011;11564;50.920;11.612;2023-08-20T04:28:09;15.10;;;10.50;;
22794;SDS011;11564;50.920;11.612;2023-08-20T04:30:35;11.83;;;10.40;;
22794;SDS011;11564;50.920;11.612;2023-08-20T04:33:01;16.73;;;10.27;;
22794;SDS011;11564;50.920;11.612;2023-08-20T04:35:26;13.27;;;10.60;;
22794;SDS011;11564;50.920;11.612;2023-08-20T04:37:52;14.43;;;11.07;;
22794;SDS011;11564;50.920;11.612;2023-08-20T04:40:18;14.63;;;10.40;;
22794;SDS011;11564;50.920;11.612;2023-08-20T04:42:43;20.50;;;11.03;;
22794;SDS011;11564;50.920;11.612;2023-08-20T04:45:09;20.53;;;10.60;;
22794;SDS011;11564;50.920;11.612;2023-08-20T04:47:36;14.30;;;10.03;;
22794;SDS011;11564;50.920;11.612;2023-08-20T04:50:02;16.57;;;12.00;;
22794;SDS011;11564;50.920;11.612;2023-08-20T04:52:28;13.00;;;10.30;;
22794;SDS011;11564;50.920;11.612;2023-08-20T04:54:54;19.47;;;12.27;;
22794;SDS011;11564;50.920;11.612;2023-08-20T04:57:19;27.13;;;10.70;;
22794;SDS011;11564;50.920;11.612;2023-08-20T04:59:45;13.83;;;11.60;;
22794;SDS011;11564;50.920;11.612;2023-08-20T05:02:11;14.30;;;10.17;;
22794;SDS011;11564;50.920;11.612;2023-08-20T05:04:37;16.90;;;10.50;;
22794;SDS011;11564;50.920;11.612;2023-08-20T05:07:03;16.87;;;11.97;;
22794;SDS011;11564;50.920;11.612;2023-08-20T05:09:29;12.00;;;10.80;;
22794;SDS011;11564;50.920;11.612;2023-08-20T05:11:55;15.13;;;11.20;;
22794;SDS011;11564;50.920;11.612;2023-08-20T05:14:21;16.43;;;11.50;;
22794;SDS011;11564;50.920;11.612;2023-08-20T05:16:47;19.23;;;11.23;;
22794;SDS011;11564;50.920;11.612;2023-08-20T05:19:13;12.03;;;10.83;;
22794;SDS011;11564;50.920;11.612;2023-08-20T05:21:39;12.10;;;10.70;;
22794;SDS011;11564;50.920;11.612;2023-08-20T05:24:04;14.80;;;10.77;;
22794;SDS011;11564;50.920;11.612;2023-08-20T05:26:30;13.67;;;10.60;;
22794;SDS011;11564;50.920;11.612;2023-08-20T05:28:56;15.47;;;11.77;;
22794;SDS011;11564;50.920;11.612;2023-08-20T05:31:22;28.70;;;18.17;;
22794;SDS011;11564;50.920;11.612;2023-08-20T05:33:48;23.50;;;16.23;;
22794;SDS011;11564;50.920;11.612;2023-08-20T05:36:14;19.53;;;13.07;;
22794;SDS011;11564;50.920;11.612;2023-08-20T05:38:39;20.43;;;18.20;;
22794;SDS011;11564;50.920;11.612;2023-08-20T05:41:07;24.00;;;17.50;;
22794;SDS011;11564;50.920;11.612;2023-08-20T05:43:33;25.03;;;15.67;;
22794;SDS011;11564;50.920;11.612;2023-08-20T05:45:59;19.33;;;15.90;;
22794;SDS011;11564;50.920;11.612;2023-08-20T05:48:24;23.10;;;15.37;;
22794;SDS011;11564;50.920;11.612;2023-08-20T05:50:50;19.03;;;15.80;;
22794;SDS011;11564;50.920;11.612;2023-08-20T05:53:15;25.00;;;17.20;;
22794;SDS011;11564;50.920;11.612;2023-08-20T05:55:41;21.47;;;15.93;;
22794;SDS011;11564;50.920;11.612;2023-08-20T05:58:07;24.00;;;14.50;;
22794;SDS011;11564;50.920;11.612;2023-08-20T06:00:32;21.33;;;15.80;;
22794;SDS011;11564;50.920;11.612;2023-08-20T06:02:58;16.57;;;14.70;;
22794;SDS011;11564;50.920;11.612;2023-08-20T06:05:23;25.23;;;15.43;;
22794;SDS011;11564;50.920;11.612;2023-08-20T06:07:49;24.67;;;15.87;;
22794;SDS011;11564;50.920;11.612;2023-08-20T06:10:15;21.43;;;14.50;;
22794;SDS011;11564;50.920;11.612;2023-08-20T06:12:41;21.47;;;15.93;;
22794;SDS011;11564;50.920;11.612;2023-08-20T06:15:07;20.77;;;15.17;;
22794;SDS011;11564;50.920;11.612;2023-08-20T06:17:33;19.97;;;16.13;;
22794;SDS011;11564;50.920;11.612;2023-08-20T06:19:58;17.87;;;15.60;;
22794;SDS011;11564;50.920;11.612;2023-08-20T06:22:24;19.77;;;16.10;;
22794;SDS011;11564;50.920;11.612;2023-08-20T06:24:50;24.67;;;16.20;;
22794;SDS011;11564;50.920;11.612;2023-08-20T06:27:15;22.23;;;15.13;;
22794;SDS011;11564;50.920;11.612;2023-08-20T06:29:41;20.80;;;15.07;;
22794;SDS011;11564;50.920;11.612;2023-08-20T06:32:06;19.43;;;16.60;;
22794;SDS011;11564;50.920;11.612;2023-08-20T06:34:35;29.83;;;18.10;;
22794;SDS011;11564;50.920;11.612;2023-08-20T06:37:01;19.00;;;16.53;;
22794;SDS011;11564;50.920;11.612;2023-08-20T06:39:27;23.57;;;18.13;;
22794;SDS011;11564;50.920;11.612;2023-08-20T06:41:53;22.60;;;19.23;;
22794;SDS011;11564;50.920;11.612;2023-08-20T06:44:18;23.90;;;21.23;;
22794;SDS011;11564;50.920;11.612;2023-08-20T06:46:44;28.47;;;19.93;;
22794;SDS011;11564;50.920;11.612;2023-08-20T06:49:09;23.70;;;20.00;;
22794;SDS011;11564;50.920;11.612;2023-08-20T06:51:35;25.10;;;19.10;;
22794;SDS011;11564;50.920;11.612;2023-08-20T06:54:01;32.00;;;21.23;;
22794;SDS011;11564;50.920;11.612;2023-08-20T06:56:27;22.93;;;19.90;;
22794;SDS011;11564;50.920;11.612;2023-08-20T06:58:53;33.43;;;22.30;;
22794;SDS011;11564;50.920;11.612;2023-08-20T07:01:19;29.63;;;21.53;;
22794;SDS011;11564;50.920;11.612;2023-08-20T07:03:45;24.83;;;21.60;;
22794;SDS011;11564;50.920;11.612;2023-08-20T07:06:10;33.70;;;21.83;;
22794;SDS011;11564;50.920;11.612;2023-08-20T07:08:39;28.50;;;19.93;;
22794;SDS011;11564;50.920;11.612;2023-08-20T07:11:05;27.37;;;22.30;;
22794;SDS011;11564;50.920;11.612;2023-08-20T07:13:31;30.63;;;22.43;;
22794;SDS011;11564;50.920;11.612;2023-08-20T07:15:57;26.07;;;21.40;;
22794;SDS011;11564;50.920;11.612;2023-08-20T07:18:22;23.80;;;20.57;;
22794;SDS011;11564;50.920;11.612;2023-08-20T07:20:49;25.03;;;20.53;;
22794;SDS011;11564;50.920;11.612;2023-08-20T07:23:16;28.47;;;20.30;;
22794;SDS011;11564;50.920;11.612;2023-08-20T07:25:41;23.93;;;18.97;;
22794;SDS011;11564;50.920;11.612;2023-08-20T07:28:07;25.80;;;20.23;;
22794;SDS011;11564;50.920;11.612;2023-08-20T07:30:34;28.97;;;23.10;;
22794;SDS011;11564;50.920;11.612;2023-08-20T07:33:00;27.50;;;23.53;;
22794;SDS011;11564;50.920;11.612;2023-08-20T07:35:26;30.80;;;23.53;;
22794;SDS011;11564;50.920;11.612;2023-08-20T07:37:52;27.33;;;22.60;;
22794;SDS011;11564;50.920;11.612;2023-08-20T07:40:18;31.23;;;22.43;;
22794;SDS011;11564;50.920;11.612;2023-08-20T07:42:44;30.50;;;22.70;;
22794;SDS011;11564;50.920;11.612;2023-08-20T07:45:09;29.93;;;23.60;;
22794;SDS011;11564;50.920;11.612;2023-08-20T07:47:36;24.97;;;21.10;;
22794;SDS011;11564;50.920;11.612;2023-08-20T07:50:02;25.37;;;20.93;;
22794;SDS011;11564;50.920;11.612;2023-08-20T07:52:32;29.87;;;20.70;;
22794;SDS011;11564;50.920;11.612;2023-08-20T07:54:57;30.47;;;22.53;;
22794;SDS011;11564;50.920;11.612;2023-08-20T07:57:23;26.33;;;19.90;;
22794;SDS011;11564;50.920;11.612;2023-08-20T07:59:49;29.27;;;21.53;;
22794;SDS011;11564;50.920;11.612;2023-08-20T08:02:15;32.20;;;24.90;;
22794;SDS011;11564;50.920;11.612;2023-08-20T08:04:41;32.23;;;24.07;;
22794;SDS011;11564;50.920;11.612;2023-08-20T08:07:07;39.57;;;25.77;;
22794;SDS011;11564;50.920;11.612;2023-08-20T08:09:34;33.83;;;23.60;;
22794;SDS011;11564;50.920;11.612;2023-08-20T08:12:00;37.57;;;25.23;;
22794;SDS011;11564;50.920;11.612;2023-08-20T08:14:26;33.30;;;24.20;;
22794;SDS011;11564;50.920;11.612;2023-08-20T08:16:52;36.03;;;26.57;;
22794;SDS011;11564;50.920;11.612;2023-08-20T08:19:18;40.23;;;27.90;;
22794;SDS011;11564;50.920;11.612;2023-08-20T08:21:45;34.93;;;24.13;;
22794;SDS011;11564;50.920;11.612;2023-08-20T08:24:11;32.83;;;24.30;;
22794;SDS011;11564;50.920;11.612;2023-08-20T08:26:37;34.00;;;25.20;;
22794;SDS011;11564;50.920;11.612;2023-08-20T08:29:03;41.27;;;26.67;;
22794;SDS011;11564;50.920;11.612;2023-08-20T08:31:30;40.40;;;27.27;;
22794;SDS011;11564;50.920;11.612;2023-08-20T08:33:56;32.67;;;25.00;;
22794;SDS011;11564;50.920;11.612;2023-08-20T08:36:21;35.67;;;28.23;;
22794;SDS011;11564;50.920;11.612;2023-08-20T08:38:49;34.50;;;26.67;;
22794;SDS011;11564;50.920;11.612;2023-08-20T08:41:16;34.33;;;24.40;;
22794;SDS011;11564;50.920;11.612;2023-08-20T08:43:42;31.90;;;24.00;;
22794;SDS011;11564;50.920;11.612;2023-08-20T08:46:12;33.30;;;23.70;;
22794;SDS011;11564;50.920;11.612;2023-08-20T08:48:44;37.30;;;25.67;;
22794;SDS011;11564;50.920;11.612;2023-08-20T08:51:11;34.87;;;22.67;;
22794;SDS011;11564;50.920;11.612;2023-08-20T08:53:38;30.77;;;22.77;;
22794;SDS011;11564;50.920;11.612;2023-08-20T08:56:04;31.80;;;23.30;;
22794;SDS011;11564;50.920;11.612;2023-08-20T08:58:32;40.37;;;24.70;;
22794;SDS011;11564;50.920;11.612;2023-08-20T09:00:58;43.43;;;23.87;;
22794;SDS011;11564;50.920;11.612;2023-08-20T09:03:24;35.53;;;25.70;;
22794;SDS011;11564;50.920;11.612;2023-08-20T09:06:01;40.30;;;27.80;;
22794;SDS011;11564;50.920;11.612;2023-08-20T09:08:32;37.97;;;27.37;;
22794;SDS011;11564;50.920;11.612;2023-08-20T09:11:00;41.30;;;28.80;;
22794;SDS011;11564;50.920;11.612;2023-08-20T09:13:39;37.40;;;27.17;;
22794;SDS011;11564;50.920;11.612;2023-08-20T09:16:07;41.77;;;27.30;;
22794;SDS011;11564;50.920;11.612;2023-08-20T09:18:46;40.43;;;25.47;;
22794;SDS011;11564;50.920;11.612;2023-08-20T09:21:12;47.60;;;27.30;;
22794;SDS011;11564;50.920;11.612;2023-08-20T09:23:38;43.60;;;28.63;;
22794;SDS011;11564;50.920;11.612;2023-08-20T09:26:06;41.57;;;28.10;;
22794;SDS011;11564;50.920;11.612;2023-08-20T09:28:42;41.43;;;28.30;;
22794;SDS011;11564;50.920;11.612;2023-08-20T09:31:09;41.77;;;30.30;;
22794;SDS011;11564;50.920;11.612;2023-08-20T09:33:35;39.30;;;31.70;;
22794;SDS011;11564;50.920;11.612;2023-08-20T09:36:04;43.50;;;29.60;;
22794;SDS011;11564;50.920;11.612;2023-08-20T09:38:35;37.17;;;29.20;;
22794;SDS011;11564;50.920;11.612;2023-08-20T09:41:04;33.80;;;27.57;;
22794;SDS011;11564;50.920;11.612;2023-08-20T09:43:33;41.23;;;31.10;;
22794;SDS011;11564;50.920;11.612;2023-08-20T09:46:03;39.60;;;30.83;;
22794;SDS011;11564;50.920;11.612;2023-08-20T09:48:33;41.00;;;30.60;;
22794;SDS011;11564;50.920;11.612;2023-08-20T09:51:07;41.67;;;32.50;;
22794;SDS011;11564;50.920;11.612;2023-08-20T09:53:37;45.03;;;31.73;;
22794;SDS011;11564;50.920;11.612;2023-08-20T09:56:11;42.90;;;30.83;;
22794;SDS011;11564;50.920;11.612;2023-08-20T09:58:42;36.70;;;28.13;;
22794;SDS011;11564;50.920;11.612;2023-08-20T10:01:09;35.17;;;28.37;;
22794;SDS011;11564;50.920;11.612;2023-08-20T10:03:35;36.73;;;27.50;;
22794;SDS011;11564;50.920;11.612;2023-08-20T10:06:02;35.60;;;28.63;;
22794;SDS011;11564;50.920;11.612;2023-08-20T10:08:31;34.47;;;27.60;;
22794;SDS011;11564;50.920;11.612;2023-08-20T10:10:56;36.60;;;29.07;;
22794;SDS011;11564;50.920;11.612;2023-08-20T10:13:22;39.27;;;29.43;;
22794;SDS011;11564;50.920;11.612;2023-08-20T10:15:48;64.17;;;28.90;;
22794;SDS011;11564;50.920;11.612;2023-08-20T10:18:14;41.47;;;28.67;;
22794;SDS011;11564;50.920;11.612;2023-08-20T10:20:40;38.00;;;27.03;;
22794;SDS011;11564;50.920;11.612;2023-08-20T10:23:07;35.70;;;26.83;;
22794;SDS011;11564;50.920;11.612;2023-08-20T10:25:39;30.33;;;25.40;;
22794;SDS011;11564;50.920;11.612;2023-08-20T10:28:14;34.70;;;27.00;;
22794;SDS011;11564;50.920;11.612;2023-08-20T10:33:38;37.80;;;27.40;;
22794;SDS011;11564;50.920;11.612;2023-08-20T10:36:17;30.60;;;26.10;;
22794;SDS011;11564;50.920;11.612;2023-08-20T10:38:47;32.40;;;25.20;;
22794;SDS011;11564;50.920;11.612;2023-08-20T10:41:14;32.60;;;23.80;;
22794;SDS011;11564;50.920;11.612;2023-08-20T10:43:48;37.73;;;24.20;;
22794;SDS011;11564;50.920;11.612;2023-08-20T10:46:15;33.17;;;25.30;;
22794;SDS011;11564;50.920;11.612;2023-08-20T10:48:43;38.20;;;25.40;;
22794;SDS011;11564;50.920;11.612;2023-08-20T10:51:16;29.73;;;22.73;;
22794;SDS011;11564;50.920;11.612;2023-08-20T10:59:07;37.70;;;25.90;;
22794;SDS011;11564;50.920;11.612;2023-08-20T11:01:34;31.40;;;25.00;;
22794;SDS011;11564;50.920;11.612;2023-08-20T11:04:00;29.60;;;22.70;;
22794;SDS011;11564;50.920;11.612;2023-08-20T11:06:31;27.60;;;22.80;;
22794;SDS011;11564;50.920;11.612;2023-08-20T11:08:59;24.60;;;21.40;;
22794;SDS011;11564;50.920;11.612;2023-08-20T11:11:25;33.43;;;26.93;;
22794;SDS011;11564;50.920;11.612;2023-08-20T11:13:51;31.80;;;26.60;;
22794;SDS011;11564;50.920;11.612;2023-08-20T11:16:17;28.90;;;25.90;;
22794;SDS011;11564;50.920;11.612;2023-08-20T11:18:44;33.20;;;27.73;;
22794;SDS011;11564;50.920;11.612;2023-08-20T11:21:10;37.33;;;26.73;;
22794;SDS011;11564;50.920;11.612;2023-08-20T11:23:37;28.27;;;25.23;;
22794;SDS011;11564;50.920;11.612;2023-08-20T11:26:07;31.47;;;25.43;;
22794;SDS011;11564;50.920;11.612;2023-08-20T11:28:32;32.30;;;26.70;;
22794;SDS011;11564;50.920;11.612;2023-08-20T11:30:58;30.57;;;24.17;;
22794;SDS011;11564;50.920;11.612;2023-08-20T11:33:26;29.00;;;24.60;;
22794;SDS011;11564;50.920;11.612;2023-08-20T11:35:52;34.03;;;24.67;;
22794;SDS011;11564;50.920;11.612;2023-08-20T11:38:19;34.33;;;25.70;;
22794;SDS011;11564;50.920;11.612;2023-08-20T11:40:46;28.00;;;24.60;;
22794;SDS011;11564;50.920;11.612;2023-08-20T11:43:12;31.30;;;25.57;;
22794;SDS011;11564;50.920;11.612;2023-08-20T11:45:44;30.90;;;25.10;;
22794;SDS011;11564;50.920;11.612;2023-08-20T11:48:11;31.80;;;24.47;;
22794;SDS011;11564;50.920;11.612;2023-08-20T11:50:37;33.90;;;25.40;;
22794;SDS011;11564;50.920;11.612;2023-08-20T11:53:02;29.03;;;25.00;;
22794;SDS011;11564;50.920;11.612;2023-08-20T11:55:29;29.23;;;24.90;;
22794;SDS011;11564;50.920;11.612;2023-08-20T11:57:55;32.50;;;25.20;;
22794;SDS011;11564;50.920;11.612;2023-08-20T12:00:24;32.87;;;25.40;;
22794;SDS011;11564;50.920;11.612;2023-08-20T12:02:54;28.77;;;24.80;;
22794;SDS011;11564;50.920;11.612;2023-08-20T12:05:21;40.07;;;25.40;;
22794;SDS011;11564;50.920;11.612;2023-08-20T12:07:54;31.37;;;22.47;;
22794;SDS011;11564;50.920;11.612;2023-08-20T12:10:24;28.53;;;22.40;;
22794;SDS011;11564;50.920;11.612;2023-08-20T12:12:50;23.77;;;21.23;;
22794;SDS011;11564;50.920;11.612;2023-08-20T12:15:17;23.40;;;19.50;;
22794;SDS011;11564;50.920;11.612;2023-08-20T12:17:44;23.63;;;21.10;;
22794;SDS011;11564;50.920;11.612;2023-08-20T12:20:23;25.73;;;22.67;;
22794;SDS011;11564;50.920;11.612;2023-08-20T12:22:51;31.67;;;23.77;;
22794;SDS011;11564;50.920;11.612;2023-08-20T12:25:17;26.20;;;22.73;;
22794;SDS011;11564;50.920;11.612;2023-08-20T12:27:42;28.23;;;21.70;;
22794;SDS011;11564;50.920;11.612;2023-08-20T12:30:08;24.47;;;20.90;;
22794;SDS011;11564;50.920;11.612;2023-08-20T12:32:34;23.97;;;21.30;;
22794;SDS011;11564;50.920;11.612;2023-08-20T12:35:00;23.63;;;20.10;;
22794;SDS011;11564;50.920;11.612;2023-08-20T12:37:27;22.73;;;20.33;;
22794;SDS011;11564;50.920;11.612;2023-08-20T12:39:53;24.07;;;20.30;;
22794;SDS011;11564;50.920;11.612;2023-08-20T12:42:19;24.57;;;19.97;;
22794;SDS011;11564;50.920;11.612;2023-08-20T12:44:44;30.77;;;19.90;;
22794;SDS011;11564;50.920;11.612;2023-08-20T12:47:10;22.53;;;18.27;;
22794;SDS011;11564;50.920;11.612;2023-08-20T12:49:35;33.23;;;20.63;;
22794;SDS011;11564;50.920;11.612;2023-08-20T12:52:01;23.93;;;18.57;;
22794;SDS011;11564;50.920;11.612;2023-08-20T12:54:28;20.00;;;17.70;;
22794;SDS011;11564;50.920;11.612;2023-08-20T12:56:54;19.73;;;17.73;;
22794;SDS011;11564;50.920;11.612;2023-08-20T12:59:20;25.60;;;18.40;;
22794;SDS011;11564;50.920;11.612;2023-08-20T13:01:45;21.07;;;16.20;;
22794;SDS011;11564;50.920;11.612;2023-08-20T13:04:12;19.60;;;17.60;;
22794;SDS011;11564;50.920;11.612;2023-08-20T13:06:38;19.63;;;16.07;;
22794;SDS011;11564;50.920;11.612;2023-08-20T13:09:04;16.93;;;15.13;;
22794;SDS011;11564;50.920;11.612;2023-08-20T13:11:31;18.07;;;14.77;;
22794;SDS011;11564;50.920;11.612;2023-08-20T13:13:58;15.47;;;13.87;;
22794;SDS011;11564;50.920;11.612;2023-08-20T13:16:24;16.10;;;13.40;;
22794;SDS011;11564;50.920;11.612;2023-08-20T13:18:50;15.00;;;13.50;;
22794;SDS011;11564;50.920;11.612;2023-08-20T13:21:15;15.20;;;13.70;;
22794;SDS011;11564;50.920;11.612;2023-08-20T13:23:41;16.30;;;13.97;;
22794;SDS011;11564;50.920;11.612;2023-08-20T13:26:07;13.83;;;12.60;;
22794;SDS011;11564;50.920;11.612;2023-08-20T13:28:32;19.40;;;13.67;;
22794;SDS011;11564;50.920;11.612;2023-08-20T13:30:58;13.70;;;12.40;;
22794;SDS011;11564;50.920;11.612;2023-08-20T13:33:24;14.83;;;11.90;;
22794;SDS011;11564;50.920;11.612;2023-08-20T13:35:49;12.70;;;11.40;;
22794;SDS011;11564;50.920;11.612;2023-08-20T13:38:17;12.17;;;10.60;;
22794;SDS011;11564;50.920;11.612;2023-08-20T13:40:44;11.73;;;10.73;;
22794;SDS011;11564;50.920;11.612;2023-08-20T13:43:09;13.20;;;12.00;;
22794;SDS011;11564;50.920;11.612;2023-08-20T13:45:35;13.73;;;11.97;;
22794;SDS011;11564;50.920;11.612;2023-08-20T13:48:01;12.07;;;10.97;;
22794;SDS011;11564;50.920;11.612;2023-08-20T13:50:26;14.00;;;10.00;;
22794;SDS011;11564;50.920;11.612;2023-08-20T13:52:52;13.07;;;10.95;;
22794;SDS011;11564;50.920;11.612;2023-08-20T13:55:17;9.52;;;8.82;;
22794;SDS011;11564;50.920;11.612;2023-08-20T13:57:43;10.38;;;9.40;;
22794;SDS011;11564;50.920;11.612;2023-08-20T14:00:09;9.32;;;8.70;;
22794;SDS011;11564;50.920;11.612;2023-08-20T14:02:37;9.57;;;8.77;;
22794;SDS011;11564;50.920;11.612;2023-08-20T14:05:03;9.23;;;8.30;;
22794;SDS011;11564;50.920;11.612;2023-08-20T14:07:29;9.85;;;8.30;;
22794;SDS011;11564;50.920;11.612;2023-08-20T14:09:55;11.18;;;8.73;;
22794;SDS011;11564;50.920;11.612;2023-08-20T14:12:21;10.77;;;9.75;;
22794;SDS011;11564;50.920;11.612;2023-08-20T14:14:47;10.88;;;9.88;;
22794;SDS011;11564;50.920;11.612;2023-08-20T14:17:12;9.68;;;8.98;;
22794;SDS011;11564;50.920;11.612;2023-08-20T14:19:38;10.18;;;9.35;;
22794;SDS011;11564;50.920;11.612;2023-08-20T14:22:04;9.90;;;8.98;;
22794;SDS011;11564;50.920;11.612;2023-08-20T14:24:29;8.65;;;7.85;;
22794;SDS011;11564;50.920;11.612;2023-08-20T14:26:55;9.70;;;8.80;;
22794;SDS011;11564;50.920;11.612;2023-08-20T14:29:20;10.60;;;9.60;;